Time,TemperatureF,DewpointF,PressureIn,WindDirection,WindDirectionDegrees,WindSpeedMPH,WindSpeedGustMPH,Humidity,HourlyPrecipIn,Conditions,Clouds,dailyrainin,SolarRadiationWatts/m^2,SoftwareType,DateUTC
2013-10-26 00:00:00,37.2,30.3,30.36,NNE,24,0.0,12.0,76,0.00,,,0.00,0,Wunderground v.1.15,2013-10-26 04:00:00,
2013-10-26 01:00:00,34.9,30.0,30.35,NNE,24,0.0,12.0,82,0.00,,,0.00,0,Wunderground v.1.15,2013-10-26 05:00:00,
2013-10-26 02:00:00,33.4,29.7,30.34,NNE,24,0.0,12.0,86,0.00,,,0.00,0,Wunderground v.1.15,2013-10-26 06:00:00,
2013-10-26 03:00:00,32.4,29.2,30.33,NNE,24,0.0,12.0,88,0.00,,,0.00,0,Wunderground v.1.15,2013-10-26 07:00:00,
2013-10-26 04:00:00,31.2,28.3,30.32,NNE,24,0.0,12.0,89,0.00,,,0.00,0,Wunderground v.1.15,2013-10-26 08:00:00,
2013-10-26 05:00:00,30.0,27.2,30.32,NNE,24,0.0,12.0,89,0.00,,,0.00,0,Wunderground v.1.15,2013-10-26 09:00:00,
2013-10-26 06:00:00,29.4,26.8,30.33,NNE,24,0.0,12.0,90,0.00,,,0.00,0,Wunderground v.1.15,2013-10-26 10:00:00,
2013-10-26 07:00:00,28.8,26.5,30.33,NNE,24,0.0,12.0,91,0.00,,,0.00,0,Wunderground v.1.15,2013-10-26 11:00:00,
2013-10-26 08:00:00,28.4,26.1,30.34,NNE,24,0.0,12.0,91,0.00,,,0.00,0,Wunderground v.1.15,2013-10-26 12:00:00,
2013-10-26 09:00:00,30.6,28.6,30.35,SE,136,2.0,12.0,92,0.00,,,0.00,19,Wunderground v.1.15,2013-10-26 13:00:00,
2013-10-26 10:00:00,38.5,32.9,30.35,South,169,2.0,12.0,80,0.00,,,0.00,309,Wunderground v.1.15,2013-10-26 14:00:00,
2013-10-26 11:00:00,45.1,32.0,30.34,South,187,4.0,12.0,60,0.00,,,0.00,490,Wunderground v.1.15,2013-10-26 15:00:00,
2013-10-26 12:00:00,50.4,32.9,30.32,SW,229,5.0,12.0,51,0.00,,,0.00,594,Wunderground v.1.15,2013-10-26 16:00:00,
2013-10-26 13:00:00,53.9,31.9,30.28,SSW,211,4.0,12.0,43,0.00,,,0.00,557,Wunderground v.1.15,2013-10-26 17:00:00,
2013-10-26 14:00:00,56.7,30.0,30.24,WSW,241,6.0,12.0,36,0.00,,,0.00,566,Wunderground v.1.15,2013-10-26 18:00:00,
2013-10-26 15:00:00,58.4,30.8,30.21,WSW,238,5.0,14.0,35,0.00,,,0.00,211,Wunderground v.1.15,2013-10-26 19:00:00,
2013-10-26 16:00:00,58.9,31.3,30.19,South,175,6.0,14.0,35,0.00,,,0.00,158,Wunderground v.1.15,2013-10-26 20:00:00,
2013-10-26 17:00:00,58.1,31.3,30.18,SW,219,7.0,14.0,36,0.00,,,0.00,98,Wunderground v.1.15,2013-10-26 21:00:00,
2013-10-26 18:00:00,58.1,31.3,30.17,SSW,212,4.0,14.0,36,0.00,,,0.00,35,Wunderground v.1.15,2013-10-26 22:00:00,
2013-10-26 19:00:00,55.9,31.3,30.16,SW,221,6.0,14.0,39,0.00,,,0.00,0,Wunderground v.1.15,2013-10-26 23:00:00,
2013-10-26 20:00:00,53.6,32.2,30.17,South,169,4.0,14.0,44,0.00,,,0.00,0,Wunderground v.1.15,2013-10-27 00:00:00,
2013-10-26 21:00:00,52.5,32.8,30.17,SSW,201,4.0,14.0,47,0.00,,,0.00,0,Wunderground v.1.15,2013-10-27 01:00:00,
2013-10-26 22:00:00,51.1,33.6,30.17,South,190,3.0,14.0,51,0.00,,,0.00,0,Wunderground v.1.15,2013-10-27 02:00:00,
2013-10-26 23:00:00,50.1,34.5,30.16,SSW,211,5.0,14.0,55,0.00,,,0.00,0,Wunderground v.1.15,2013-10-27 03:00:00,